Time;durP1;ratioP1;P1;durP2;ratioP2;P2;SDS_P1;SDS_P2;PMS_P1;PMS_P2;Temp;Humidity;BMP_temperature;BMP_pressure;BME280_temperature;BME280_humidity;BME280_pressure;Samples;Min_cycle;Max_cycle;Signal;HPM_P1;HPM_P2
2021/01/25 00:02:44;;;;;;;2.56;2.36;;;;;;;17.92;44.25;98764.34;;;;-55
2021/01/25 00:05:44;;;;;;;2.73;2.53;;;;;;;17.89;44.31;98766.91;;;;-55
2021/01/25 00:08:44;;;;;;;2.76;2.45;;;;;;;17.88;44.24;98763.48;;;;-55
2021/01/25 00:11:44;;;;;;;2.56;2.36;;;;;;;17.86;44.25;98759.63;;;;-55
2021/01/25 00:14:44;;;;;;;2.53;2.33;;;;;;;17.85;44.26;98754.95;;;;-55
2021/01/25 00:17:44;;;;;;;2.65;2.44;;;;;;;17.83;44.28;98749.17;;;;-55
2021/01/25 00:20:44;;;;;;;2.71;2.45;;;;;;;17.81;44.30;98744.85;;;;-55
2021/01/25 00:23:44;;;;;;;2.68;2.40;;;;;;;17.80;44.30;98741.30;;;;-55
2021/01/25 00:26:44;;;;;;;2.56;2.36;;;;;;;17.79;44.26;98742.78;;;;-55
2021/01/25 00:29:44;;;;;;;3.25;2.53;;;;;;;17.78;44.34;98741.56;;;;-55
2021/01/25 00:32:44;;;;;;;2.73;2.53;;;;;;;17.75;44.28;98733.59;;;;-55
2021/01/25 00:35:44;;;;;;;2.85;2.60;;;;;;;17.75;44.35;98735.78;;;;-55
2021/01/25 00:38:44;;;;;;;2.54;2.34;;;;;;;17.72;44.20;98731.52;;;;-55
2021/01/25 00:41:44;;;;;;;2.65;2.45;;;;;;;17.71;44.36;98730.65;;;;-55
2021/01/25 00:44:44;;;;;;;2.43;2.23;;;;;;;17.69;44.36;98726.23;;;;-55
2021/01/25 00:47:44;;;;;;;2.49;2.29;;;;;;;17.68;44.42;98722.69;;;;-53
2021/01/25 00:50:44;;;;;;;2.66;2.46;;;;;;;17.66;44.38;98721.59;;;;-53
2021/01/25 00:53:44;;;;;;;2.82;2.53;;;;;;;17.65;44.38;98717.38;;;;-53
2021/01/25 00:56:44;;;;;;;2.83;2.35;;;;;;;17.62;44.40;98714.34;;;;-53
2021/01/25 00:59:44;;;;;;;2.73;2.45;;;;;;;17.62;44.37;98705.13;;;;-56
2021/01/25 01:02:44;;;;;;;2.61;2.37;;;;;;;17.60;44.38;98707.56;;;;-55
2021/01/25 01:05:44;;;;;;;2.54;2.30;;;;;;;17.59;44.36;98708.06;;;;-55
2021/01/25 01:08:44;;;;;;;2.56;2.36;;;;;;;17.57;44.40;98707.45;;;;-55
2021/01/25 01:11:45;;;;;;;2.57;2.37;;;;;;;17.55;44.47;98713.05;;;;-55
2021/01/25 01:14:44;;;;;;;2.51;2.31;;;;;;;17.54;44.39;98706.69;;;;-55
2021/01/25 01:17:44;;;;;;;2.75;2.43;;;;;;;17.53;44.42;98712.99;;;;-55
2021/01/25 01:20:44;;;;;;;2.55;2.34;;;;;;;17.51;44.48;98703.97;;;;-55
2021/01/25 01:23:44;;;;;;;2.41;2.21;;;;;;;17.50;44.45;98707.47;;;;-55
2021/01/25 01:26:44;;;;;;;2.41;2.21;;;;;;;17.48;44.45;98711.45;;;;-55
2021/01/25 01:29:44;;;;;;;2.96;2.50;;;;;;;17.47;44.42;98713.33;;;;-56
2021/01/25 01:32:44;;;;;;;2.50;2.30;;;;;;;17.45;44.39;98713.10;;;;-56
2021/01/25 01:35:44;;;;;;;2.64;2.43;;;;;;;17.43;44.51;98707.14;;;;-55
2021/01/25 01:38:44;;;;;;;2.55;2.35;;;;;;;17.42;44.44;98707.73;;;;-55
2021/01/25 01:41:44;;;;;;;2.59;2.39;;;;;;;17.40;44.50;98705.09;;;;-55
2021/01/25 01:44:44;;;;;;;2.57;2.37;;;;;;;17.38;44.47;98701.77;;;;-55
2021/01/25 01:47:44;;;;;;;2.63;2.36;;;;;;;17.37;44.41;98703.77;;;;-54
2021/01/25 01:50:44;;;;;;;2.97;2.51;;;;;;;17.36;44.45;98707.48;;;;-55
2021/01/25 01:53:44;;;;;;;2.52;2.31;;;;;;;17.35;44.43;98705.80;;;;-56
2021/01/25 01:56:44;;;;;;;2.54;2.34;;;;;;;17.33;44.50;98699.67;;;;-54
2021/01/25 01:59:44;;;;;;;2.83;2.46;;;;;;;17.32;44.43;98702.19;;;;-55
2021/01/25 02:02:44;;;;;;;2.91;2.44;;;;;;;17.31;44.48;98700.98;;;;-55
2021/01/25 02:05:44;;;;;;;2.51;2.31;;;;;;;17.29;44.47;98698.67;;;;-55
2021/01/25 02:08:44;;;;;;;2.59;2.38;;;;;;;17.27;44.44;98691.81;;;;-55
2021/01/25 02:11:44;;;;;;;2.55;2.35;;;;;;;17.26;44.51;98693.62;;;;-55
2021/01/25 02:14:44;;;;;;;2.55;2.35;;;;;;;17.25;44.60;98689.01;;;;-55
2021/01/25 02:17:44;;;;;;;2.42;2.22;;;;;;;17.24;44.50;98684.09;;;;-55
2021/01/25 02:20:44;;;;;;;2.50;2.30;;;;;;;17.23;44.49;98681.27;;;;-56
2021/01/25 02:23:45;;;;;;;2.55;2.35;;;;;;;17.23;44.45;98686.53;;;;-55
2021/01/25 02:28:44;;;;;;;2.51;2.31;;;;;;;17.21;44.51;98683.15;;;;-53
2021/01/25 02:31:44;;;;;;;2.53;2.33;;;;;;;17.20;44.49;98686.25;;;;-53
2021/01/25 02:34:44;;;;;;;2.38;2.18;;;;;;;17.20;44.54;98683.25;;;;-53
2021/01/25 02:37:45;;;;;;;2.52;2.32;;;;;;;17.18;44.47;98686.59;;;;-53
2021/01/25 02:40:44;;;;;;;2.49;2.29;;;;;;;17.17;44.59;98687.08;;;;-53
2021/01/25 02:43:44;;;;;;;2.44;2.24;;;;;;;17.17;44.43;98687.49;;;;-53
2021/01/25 02:46:44;;;;;;;2.65;2.31;;;;;;;17.16;44.47;98684.51;;;;-53
2021/01/25 02:49:44;;;;;;;2.50;2.30;;;;;;;17.14;44.53;98677.91;;;;-54
2021/01/25 02:52:44;;;;;;;2.47;2.27;;;;;;;17.14;44.48;98676.44;;;;-53
2021/01/25 02:55:44;;;;;;;2.48;2.28;;;;;;;17.13;44.52;98676.77;;;;-53
2021/01/25 02:58:44;;;;;;;2.55;2.35;;;;;;;17.13;44.55;98678.16;;;;-53
2021/01/25 03:01:46;;;;;;;2.57;2.37;;;;;;;17.11;44.58;98676.31;;;;-53
2021/01/25 03:04:44;;;;;;;2.37;2.11;;;;;;;17.11;44.48;98676.73;;;;-55
2021/01/25 03:07:44;;;;;;;2.51;2.31;;;;;;;17.09;44.61;98681.52;;;;-55
2021/01/25 03:10:44;;;;;;;2.42;2.22;;;;;;;17.08;44.50;98681.95;;;;-55
2021/01/25 03:13:44;;;;;;;2.39;2.19;;;;;;;17.07;44.51;98688.18;;;;-56
2021/01/25 03:16:44;;;;;;;2.50;2.30;;;;;;;17.07;44.58;98691.02;;;;-55
2021/01/25 03:19:44;;;;;;;2.25;2.05;;;;;;;17.06;44.54;98691.05;;;;-55
2021/01/25 03:22:44;;;;;;;2.53;2.33;;;;;;;17.05;44.59;98693.38;;;;-55
2021/01/25 03:25:44;;;;;;;2.44;2.24;;;;;;;17.04;44.52;98692.68;;;;-55
2021/01/25 03:28:44;;;;;;;2.41;2.21;;;;;;;17.03;44.59;98698.02;;;;-55
2021/01/25 03:31:44;;;;;;;2.38;2.17;;;;;;;17.03;44.62;98702.88;;;;-55
2021/01/25 03:34:44;;;;;;;2.40;2.20;;;;;;;17.01;44.59;98702.97;;;;-57
2021/01/25 03:37:44;;;;;;;2.35;2.15;;;;;;;17.00;44.57;98701.71;;;;-57
2021/01/25 03:40:44;;;;;;;2.61;2.41;;;;;;;16.99;44.62;98701.23;;;;-57
2021/01/25 03:43:44;;;;;;;2.55;2.33;;;;;;;16.99;44.61;98703.25;;;;-57
2021/01/25 03:46:46;;;;;;;2.48;2.19;;;;;;;16.97;44.58;98703.02;;;;-57
2021/01/25 03:49:44;;;;;;;2.33;2.13;;;;;;;16.96;44.57;98706.28;;;;-57
2021/01/25 03:52:44;;;;;;;2.40;2.20;;;;;;;16.96;44.56;98707.98;;;;-57
2021/01/25 03:55:44;;;;;;;2.45;2.25;;;;;;;16.95;44.59;98708.95;;;;-57
2021/01/25 03:58:44;;;;;;;2.55;2.35;;;;;;;16.94;44.59;98710.42;;;;-57
2021/01/25 04:01:44;;;;;;;2.34;2.14;;;;;;;16.93;44.58;98710.18;;;;-57
2021/01/25 04:04:44;;;;;;;2.30;2.10;;;;;;;16.92;44.53;98709.72;;;;-57
2021/01/25 04:07:45;;;;;;;2.44;2.24;;;;;;;16.91;44.60;98707.56;;;;-55
2021/01/25 04:10:44;;;;;;;2.35;2.15;;;;;;;16.90;44.50;98712.57;;;;-55
2021/01/25 04:13:44;;;;;;;2.32;2.12;;;;;;;16.90;44.61;98713.97;;;;-53
2021/01/25 04:16:44;;;;;;;2.26;2.06;;;;;;;16.90;44.56;98714.94;;;;-57
2021/01/25 04:19:44;;;;;;;2.30;2.10;;;;;;;16.88;44.53;98720.53;;;;-57
2021/01/25 04:22:44;;;;;;;2.36;2.16;;;;;;;16.87;44.56;98717.53;;;;-57
2021/01/25 04:25:44;;;;;;;2.35;2.15;;;;;;;16.86;44.62;98718.84;;;;-57
2021/01/25 04:28:44;;;;;;;2.14;1.94;;;;;;;16.85;44.56;98721.22;;;;-57
2021/01/25 04:31:44;;;;;;;2.37;2.13;;;;;;;16.85;44.62;98724.11;;;;-56
2021/01/25 04:34:44;;;;;;;2.55;2.18;;;;;;;16.84;44.59;98725.74;;;;-57
2021/01/25 04:37:44;;;;;;;2.22;2.02;;;;;;;16.83;44.56;98729.90;;;;-57
2021/01/25 04:40:44;;;;;;;2.36;2.16;;;;;;;16.83;44.59;98728.59;;;;-55
2021/01/25 04:43:44;;;;;;;2.27;2.07;;;;;;;16.82;44.63;98729.02;;;;-55
2021/01/25 04:46:44;;;;;;;2.53;2.13;;;;;;;16.81;44.60;98726.77;;;;-55
2021/01/25 04:49:44;;;;;;;2.44;2.24;;;;;;;16.81;44.62;98729.66;;;;-55
2021/01/25 04:52:44;;;;;;;2.42;2.22;;;;;;;16.80;44.53;98733.36;;;;-55
2021/01/25 04:55:44;;;;;;;2.66;2.08;;;;;;;16.78;44.63;98732.32;;;;-55
2021/01/25 04:58:44;;;;;;;2.39;2.19;;;;;;;16.78;44.60;98735.80;;;;-55
2021/01/25 05:01:44;;;;;;;2.39;2.19;;;;;;;16.78;44.67;98740.02;;;;-57
2021/01/25 05:04:44;;;;;;;2.46;2.25;;;;;;;16.77;44.63;98744.81;;;;-57
2021/01/25 05:07:44;;;;;;;2.93;2.27;;;;;;;16.77;44.61;98741.81;;;;-57
2021/01/25 05:10:44;;;;;;;2.30;2.10;;;;;;;16.75;44.71;98741.34;;;;-57
2021/01/25 05:13:44;;;;;;;2.22;2.02;;;;;;;16.75;44.59;98743.69;;;;-57
2021/01/25 05:16:44;;;;;;;2.15;1.95;;;;;;;16.74;44.65;98740.30;;;;-56
2021/01/25 05:19:44;;;;;;;2.32;2.12;;;;;;;16.73;44.63;98743.63;;;;-57
2021/01/25 05:22:44;;;;;;;2.35;2.15;;;;;;;16.72;44.64;98739.50;;;;-57
2021/01/25 05:25:45;;;;;;;2.32;2.12;;;;;;;16.72;44.66;98740.88;;;;-57
2021/01/25 05:28:44;;;;;;;2.17;2.01;;;;;;;16.71;44.65;98741.14;;;;-57
2021/01/25 05:31:44;;;;;;;2.51;2.31;;;;;;;16.71;44.68;98748.92;;;;-57
2021/01/25 05:34:44;;;;;;;2.16;1.96;;;;;;;16.70;44.68;98750.53;;;;-57
2021/01/25 05:37:44;;;;;;;2.32;2.11;;;;;;;16.69;44.69;98748.85;;;;-57
2021/01/25 05:40:44;;;;;;;2.07;1.93;;;;;;;16.69;44.64;98752.00;;;;-57
2021/01/25 05:43:44;;;;;;;2.21;2.03;;;;;;;16.67;44.66;98753.46;;;;-57
2021/01/25 05:46:44;;;;;;;2.13;1.94;;;;;;;16.67;44.71;98754.86;;;;-57
2021/01/25 05:49:44;;;;;;;2.29;2.10;;;;;;;16.65;44.63;98753.89;;;;-57
2021/01/25 05:52:44;;;;;;;2.41;2.21;;;;;;;16.65;44.70;98757.38;;;;-57
2021/01/25 05:55:44;;;;;;;2.16;1.97;;;;;;;16.64;44.73;98756.33;;;;-55
2021/01/25 05:58:44;;;;;;;2.33;2.12;;;;;;;16.64;44.66;98762.55;;;;-56
2021/01/25 06:01:44;;;;;;;2.27;2.07;;;;;;;16.63;44.67;98760.72;;;;-55
2021/01/25 06:04:44;;;;;;;2.49;2.19;;;;;;;16.62;44.68;98766.87;;;;-55
2021/01/25 06:07:44;;;;;;;2.19;1.99;;;;;;;16.61;44.68;98768.16;;;;-55
2021/01/25 06:10:44;;;;;;;2.31;2.11;;;;;;;16.61;44.66;98769.80;;;;-56
2021/01/25 06:13:44;;;;;;;2.26;2.06;;;;;;;16.61;44.68;98772.05;;;;-57
2021/01/25 06:16:44;;;;;;;2.15;1.95;;;;;;;16.61;44.73;98771.89;;;;-57
2021/01/25 06:19:44;;;;;;;2.11;1.93;;;;;;;16.61;44.74;98775.35;;;;-57
2021/01/25 06:22:44;;;;;;;2.20;2.00;;;;;;;16.62;44.75;98780.52;;;;-56
2021/01/25 06:25:44;;;;;;;2.21;2.01;;;;;;;16.63;44.73;98780.84;;;;-56
2021/01/25 06:28:44;;;;;;;2.31;2.04;;;;;;;16.64;44.78;98782.13;;;;-55
2021/01/25 06:31:45;;;;;;;2.11;1.91;;;;;;;16.66;44.74;98787.59;;;;-55
2021/01/25 06:34:44;;;;;;;2.26;2.06;;;;;;;16.69;44.77;98791.47;;;;-55
2021/01/25 06:37:44;;;;;;;2.06;1.89;;;;;;;16.71;44.82;98790.55;;;;-55
2021/01/25 06:40:44;;;;;;;1.98;1.88;;;;;;;16.74;44.98;98794.24;;;;-53
2021/01/25 06:43:45;;;;;;;1.97;1.83;;;;;;;16.77;44.96;98793.99;;;;-53
2021/01/25 06:46:44;;;;;;;2.23;2.03;;;;;;;16.82;45.02;98797.11;;;;-53
2021/01/25 06:49:44;;;;;;;2.12;1.89;;;;;;;16.85;44.90;98798.06;;;;-53
2021/01/25 06:52:44;;;;;;;2.06;1.93;;;;;;;16.89;44.93;98795.09;;;;-53
2021/01/25 06:55:44;;;;;;;2.07;1.90;;;;;;;16.91;44.96;98795.31;;;;-54
2021/01/25 06:58:44;;;;;;;2.27;2.00;;;;;;;16.94;44.95;98804.76;;;;-53
2021/01/25 07:01:44;;;;;;;1.95;1.85;;;;;;;16.99;45.02;98806.90;;;;-53
2021/01/25 07:04:44;;;;;;;2.05;1.90;;;;;;;17.02;45.00;98809.30;;;;-53
2021/01/25 07:07:44;;;;;;;2.86;1.90;;;;;;;17.06;45.05;98815.99;;;;-53
2021/01/25 07:10:44;;;;;;;2.18;1.98;;;;;;;17.10;45.06;98820.23;;;;-53
2021/01/25 07:13:44;;;;;;;2.11;1.92;;;;;;;17.12;45.04;98824.66;;;;-53
2021/01/25 07:16:44;;;;;;;2.73;1.83;;;;;;;17.16;45.07;98828.73;;;;-54
2021/01/25 07:19:44;;;;;;;2.09;1.89;;;;;;;17.18;45.01;98832.34;;;;-54
2021/01/25 07:22:44;;;;;;;2.08;1.88;;;;;;;17.21;45.02;98837.28;;;;-53
2021/01/25 07:25:44;;;;;;;2.05;1.85;;;;;;;17.22;45.02;98842.34;;;;-54
2021/01/25 07:28:44;;;;;;;2.18;1.98;;;;;;;17.23;45.04;98840.08;;;;-53
2021/01/25 07:31:44;;;;;;;2.07;1.86;;;;;;;17.24;44.92;98847.77;;;;-54
2021/01/25 07:34:44;;;;;;;1.85;1.71;;;;;;;17.26;44.99;98854.93;;;;-54
2021/01/25 07:37:44;;;;;;;2.14;1.94;;;;;;;17.26;44.89;98857.95;;;;-54
2021/01/25 07:40:44;;;;;;;3.51;2.03;;;;;;;17.27;44.94;98863.91;;;;-54
2021/01/25 07:43:44;;;;;;;1.94;1.81;;;;;;;17.28;44.90;98862.93;;;;-54
2021/01/25 07:46:45;;;;;;;2.19;1.99;;;;;;;17.28;44.82;98867.13;;;;-53
2021/01/25 07:49:44;;;;;;;1.99;1.80;;;;;;;17.28;44.83;98868.59;;;;-54
2021/01/25 07:52:44;;;;;;;1.88;1.78;;;;;;;17.28;44.90;98873.85;;;;-54
2021/01/25 07:55:44;;;;;;;1.91;1.79;;;;;;;17.28;44.83;98877.50;;;;-54
2021/01/25 07:58:44;;;;;;;2.04;1.84;;;;;;;17.28;44.89;98879.27;;;;-53
2021/01/25 08:01:45;;;;;;;1.81;1.71;;;;;;;17.28;44.82;98882.13;;;;-53
2021/01/25 08:04:44;;;;;;;1.90;1.80;;;;;;;17.28;44.78;98883.00;;;;-53
2021/01/25 08:07:44;;;;;;;2.06;1.86;;;;;;;17.27;44.74;98885.46;;;;-53
2021/01/25 08:10:44;;;;;;;1.87;1.77;;;;;;;17.27;44.77;98892.19;;;;-54
2021/01/25 08:13:44;;;;;;;2.17;1.98;;;;;;;17.27;44.78;98893.06;;;;-55
2021/01/25 08:16:44;;;;;;;1.80;1.70;;;;;;;17.26;44.78;98898.00;;;;-55
2021/01/25 08:19:44;;;;;;;1.99;1.88;;;;;;;17.26;44.69;98899.07;;;;-55
2021/01/25 08:22:44;;;;;;;1.95;1.78;;;;;;;17.25;44.74;98900.28;;;;-55
2021/01/25 08:25:44;;;;;;;1.80;1.70;;;;;;;17.25;44.70;98905.14;;;;-55
2021/01/25 08:28:44;;;;;;;1.98;1.86;;;;;;;17.24;44.58;98905.89;;;;-55
2021/01/25 08:31:44;;;;;;;1.83;1.73;;;;;;;17.24;44.64;98914.69;;;;-55
2021/01/25 08:34:44;;;;;;;2.08;1.88;;;;;;;17.24;44.72;98918.17;;;;-55
2021/01/25 08:37:44;;;;;;;2.02;1.90;;;;;;;17.24;44.68;98922.78;;;;-55
2021/01/25 08:40:44;;;;;;;2.01;1.91;;;;;;;17.24;44.57;98930.08;;;;-55
2021/01/25 08:43:44;;;;;;;1.90;1.80;;;;;;;17.23;44.73;98933.74;;;;-55
2021/01/25 08:46:44;;;;;;;2.05;1.89;;;;;;;17.24;44.77;98939.80;;;;-55
2021/01/25 08:49:44;;;;;;;1.75;1.65;;;;;;;17.24;44.68;98940.59;;;;-55
2021/01/25 08:52:44;;;;;;;6.02;2.07;;;;;;;17.24;44.96;98943.94;;;;-55
2021/01/25 08:55:44;;;;;;;2.83;1.95;;;;;;;17.26;45.21;98943.48;;;;-50
2021/01/25 08:58:44;;;;;;;2.55;2.27;;;;;;;17.30;45.60;98948.72;;;;-46
2021/01/25 09:01:44;;;;;;;3.83;2.30;;;;;;;17.33;45.50;98953.00;;;;-56
2021/01/25 09:04:44;;;;;;;2.59;2.31;;;;;;;17.37;45.58;98955.06;;;;-54
2021/01/25 09:07:44;;;;;;;3.48;2.45;;;;;;;17.42;45.38;98961.01;;;;-51
2021/01/25 09:10:44;;;;;;;2.65;2.40;;;;;;;17.48;45.38;98969.06;;;;-54
2021/01/25 09:13:44;;;;;;;4.62;2.27;;;;;;;17.54;45.04;98973.13;;;;-55
2021/01/25 09:16:44;;;;;;;4.19;2.31;;;;;;;17.62;45.20;98971.92;;;;-59
2021/01/25 09:19:44;;;;;;;3.25;2.43;;;;;;;17.69;45.07;98977.83;;;;-58
2021/01/25 09:22:44;;;;;;;4.20;2.11;;;;;;;17.72;44.85;98981.12;;;;-57
2021/01/25 09:25:44;;;;;;;3.64;2.19;;;;;;;17.76;44.96;98978.88;;;;-56
2021/01/25 09:28:44;;;;;;;3.41;2.03;;;;;;;17.78;45.11;98982.20;;;;-54
2021/01/25 09:31:44;;;;;;;5.19;2.47;;;;;;;17.84;45.19;98992.05;;;;-52
2021/01/25 09:34:44;;;;;;;4.82;2.78;;;;;;;17.88;44.95;98993.45;;;;-52
2021/01/25 09:37:44;;;;;;;7.41;2.62;;;;;;;17.93;45.22;99004.45;;;;-56
2021/01/25 09:40:44;;;;;;;3.80;2.30;;;;;;;17.97;45.28;99009.99;;;;-54
2021/01/25 09:43:44;;;;;;;4.17;2.31;;;;;;;18.03;45.34;99016.63;;;;-48
2021/01/25 09:46:44;;;;;;;3.87;2.39;;;;;;;18.08;45.41;99020.81;;;;-59
2021/01/25 09:49:44;;;;;;;4.90;2.35;;;;;;;18.10;45.10;99021.44;;;;-59
2021/01/25 09:52:44;;;;;;;3.32;2.10;;;;;;;18.11;44.94;99026.11;;;;-58
2021/01/25 09:55:44;;;;;;;5.77;2.33;;;;;;;18.12;44.99;99031.39;;;;-51
2021/01/25 09:58:44;;;;;;;2.95;2.28;;;;;;;18.13;44.87;99033.80;;;;-64
2021/01/25 10:01:44;;;;;;;3.84;2.30;;;;;;;18.14;44.84;99040.94;;;;-64
2021/01/25 10:04:44;;;;;;;2.95;2.27;;;;;;;18.15;44.86;99042.53;;;;-65
2021/01/25 10:07:44;;;;;;;4.34;2.29;;;;;;;18.19;44.89;99048.90;;;;-65
2021/01/25 10:10:44;;;;;;;4.86;2.30;;;;;;;18.21;44.64;99052.53;;;;-44
2021/01/25 10:13:44;;;;;;;3.33;2.21;;;;;;;18.21;44.50;99054.71;;;;-49
2021/01/25 10:16:44;;;;;;;4.18;2.31;;;;;;;18.23;44.58;99060.54;;;;-49
2021/01/25 10:19:44;;;;;;;5.73;2.06;;;;;;;18.24;44.58;99061.48;;;;-49
2021/01/25 10:22:44;;;;;;;3.67;2.15;;;;;;;18.26;44.63;99061.79;;;;-49
2021/01/25 10:25:44;;;;;;;3.02;2.23;;;;;;;18.27;44.54;99069.56;;;;-55
2021/01/25 10:28:44;;;;;;;3.65;2.09;;;;;;;18.29;44.64;99070.52;;;;-54
2021/01/25 10:31:44;;;;;;;2.91;2.33;;;;;;;18.31;44.60;99073.52;;;;-44
2021/01/25 10:34:44;;;;;;;3.38;2.11;;;;;;;18.32;44.60;99077.29;;;;-44
2021/01/25 10:37:44;;;;;;;4.11;2.27;;;;;;;18.35;44.58;99081.56;;;;-49
2021/01/25 10:40:44;;;;;;;2.63;2.20;;;;;;;18.37;44.63;99084.39;;;;-48
2021/01/25 10:43:44;;;;;;;3.13;2.05;;;;;;;18.37;44.55;99083.81;;;;-48
2021/01/25 10:46:44;;;;;;;2.30;2.10;;;;;;;18.40;44.56;99093.09;;;;-55
2021/01/25 10:49:44;;;;;;;2.24;2.04;;;;;;;18.42;44.50;99095.02;;;;-55
2021/01/25 10:52:44;;;;;;;2.35;2.07;;;;;;;18.44;44.52;99096.47;;;;-49
2021/01/25 10:55:44;;;;;;;4.99;2.24;;;;;;;18.46;44.53;99100.50;;;;-49
2021/01/25 10:58:44;;;;;;;3.56;2.03;;;;;;;18.46;44.46;99108.52;;;;-49
2021/01/25 11:01:44;;;;;;;2.85;2.11;;;;;;;18.48;44.52;99109.08;;;;-49
2021/01/25 11:04:44;;;;;;;3.22;2.19;;;;;;;18.50;44.51;99110.10;;;;-49
2021/01/25 11:07:44;;;;;;;2.35;1.98;;;;;;;18.51;44.43;99108.87;;;;-49
2021/01/25 11:10:44;;;;;;;3.81;2.23;;;;;;;18.52;44.44;99110.42;;;;-48
2021/01/25 11:13:44;;;;;;;2.51;2.01;;;;;;;18.53;44.38;99112.02;;;;-49
2021/01/25 11:16:44;;;;;;;2.30;2.10;;;;;;;18.54;44.41;99119.47;;;;-49
2021/01/25 11:19:44;;;;;;;2.23;2.00;;;;;;;18.55;44.49;99130.98;;;;-49
2021/01/25 11:22:44;;;;;;;2.26;2.06;;;;;;;18.56;44.41;99129.10;;;;-48
2021/01/25 11:25:44;;;;;;;3.16;2.10;;;;;;;18.57;44.37;99131.84;;;;-48
2021/01/25 11:28:44;;;;;;;2.93;1.96;;;;;;;18.57;44.41;99130.48;;;;-49
2021/01/25 11:31:44;;;;;;;2.19;1.96;;;;;;;18.58;44.38;99134.11;;;;-48
2021/01/25 11:34:44;;;;;;;2.29;2.07;;;;;;;18.59;44.38;99138.58;;;;-48
2021/01/25 11:37:44;;;;;;;2.16;1.96;;;;;;;18.60;44.28;99140.42;;;;-49
2021/01/25 11:40:44;;;;;;;2.65;1.85;;;;;;;18.60;44.36;99144.06;;;;-44
2021/01/25 11:43:44;;;;;;;2.20;2.00;;;;;;;18.62;44.35;99149.89;;;;-45
2021/01/25 11:46:44;;;;;;;2.48;2.10;;;;;;;18.62;44.30;99147.63;;;;-45
2021/01/25 11:49:44;;;;;;;2.41;2.10;;;;;;;18.64;44.32;99154.67;;;;-44
2021/01/25 11:52:44;;;;;;;2.19;2.00;;;;;;;18.63;44.35;99156.67;;;;-44
2021/01/25 11:55:44;;;;;;;2.33;2.10;;;;;;;18.65;44.29;99158.52;;;;-44
2021/01/25 11:58:44;;;;;;;1.95;1.83;;;;;;;18.66;44.32;99163.39;;;;-44
2021/01/25 12:01:44;;;;;;;2.33;2.01;;;;;;;18.67;44.32;99166.36;;;;-44
2021/01/25 12:04:44;;;;;;;2.18;1.89;;;;;;;18.69;44.29;99167.58;;;;-44
2021/01/25 12:07:44;;;;;;;2.11;1.86;;;;;;;18.69;44.28;99167.96;;;;-44
2021/01/25 12:10:44;;;;;;;2.11;1.91;;;;;;;18.70;44.29;99167.01;;;;-44
2021/01/25 12:13:44;;;;;;;2.30;1.97;;;;;;;18.71;44.23;99176.30;;;;-44
2021/01/25 12:16:44;;;;;;;2.35;1.89;;;;;;;18.71;44.28;99175.49;;;;-49
2021/01/25 12:19:44;;;;;;;1.91;1.81;;;;;;;18.73;44.27;99181.15;;;;-49
2021/01/25 12:22:44;;;;;;;2.12;1.91;;;;;;;18.74;44.25;99181.73;;;;-49
2021/01/25 12:25:44;;;;;;;1.83;1.73;;;;;;;18.74;44.22;99183.75;;;;-48
2021/01/25 12:28:44;;;;;;;2.10;1.90;;;;;;;18.76;44.24;99184.94;;;;-49
2021/01/25 12:31:44;;;;;;;2.20;1.97;;;;;;;18.76;44.24;99191.38;;;;-48
2021/01/25 12:34:44;;;;;;;2.08;1.88;;;;;;;18.76;44.21;99189.98;;;;-49
2021/01/25 12:37:44;;;;;;;1.89;1.79;;;;;;;18.77;44.23;99190.77;;;;-48
2021/01/25 12:40:44;;;;;;;1.87;1.77;;;;;;;18.78;44.20;99196.05;;;;-44
2021/01/25 12:43:44;;;;;;;1.90;1.80;;;;;;;18.81;44.18;99200.44;;;;-45
2021/01/25 12:46:44;;;;;;;2.00;1.80;;;;;;;18.80;44.17;99200.03;;;;-44
2021/01/25 12:49:44;;;;;;;2.07;1.87;;;;;;;18.81;44.16;99206.19;;;;-48
2021/01/25 12:52:44;;;;;;;2.10;1.77;;;;;;;18.83;44.20;99208.92;;;;-48
2021/01/25 12:55:44;;;;;;;1.98;1.81;;;;;;;18.84;44.16;99211.58;;;;-48
2021/01/25 12:58:44;;;;;;;1.99;1.89;;;;;;;18.84;44.18;99215.63;;;;-48
2021/01/25 13:01:44;;;;;;;2.10;1.90;;;;;;;18.84;44.20;99222.87;;;;-49
2021/01/25 13:04:44;;;;;;;2.03;1.90;;;;;;;18.85;44.14;99223.83;;;;-48
2021/01/25 13:07:44;;;;;;;2.16;1.96;;;;;;;18.87;44.14;99228.27;;;;-48
2021/01/25 13:10:44;;;;;;;5.39;2.00;;;;;;;18.92;44.17;99226.34;;;;-61
2021/01/25 13:13:44;;;;;;;3.97;1.85;;;;;;;18.91;44.10;99228.16;;;;-60
2021/01/25 13:16:44;;;;;;;2.98;1.67;;;;;;;18.92;44.09;99231.87;;;;-60
2021/01/25 13:19:44;;;;;;;2.81;1.99;;;;;;;18.92;44.09;99236.33;;;;-60
2021/01/25 13:22:44;;;;;;;2.50;1.80;;;;;;;18.93;44.11;99240.32;;;;-60
2021/01/25 13:25:44;;;;;;;2.87;1.92;;;;;;;18.93;44.13;99242.91;;;;-60
2021/01/25 13:28:44;;;;;;;2.17;1.74;;;;;;;18.94;44.05;99250.19;;;;-60
2021/01/25 13:31:44;;;;;;;1.80;1.70;;;;;;;18.94;44.15;99255.63;;;;-60
2021/01/25 13:34:44;;;;;;;3.46;1.81;;;;;;;18.95;44.13;99257.50;;;;-60
2021/01/25 13:37:44;;;;;;;1.81;1.71;;;;;;;18.96;44.05;99261.55;;;;-60
2021/01/25 13:40:44;;;;;;;2.77;1.80;;;;;;;18.97;44.11;99267.30;;;;-60
2021/01/25 13:43:44;;;;;;;2.26;1.80;;;;;;;18.97;44.11;99271.78;;;;-60
2021/01/25 13:46:44;;;;;;;1.93;1.74;;;;;;;18.98;44.11;99276.20;;;;-55
2021/01/25 13:49:44;;;;;;;2.36;1.65;;;;;;;18.98;44.11;99285.14;;;;-55
2021/01/25 13:52:44;;;;;;;1.81;1.69;;;;;;;18.99;44.13;99293.42;;;;-54
2021/01/25 13:55:45;;;;;;;2.41;1.80;;;;;;;19.00;44.13;99298.77;;;;-54
2021/01/25 13:58:44;;;;;;;1.70;1.60;;;;;;;19.00;44.10;99302.41;;;;-55
2021/01/25 14:01:44;;;;;;;1.77;1.63;;;;;;;19.00;44.13;99305.16;;;;-55
2021/01/25 14:04:44;;;;;;;1.81;1.71;;;;;;;19.01;44.10;99313.94;;;;-54
2021/01/25 14:07:44;;;;;;;1.75;1.65;;;;;;;19.02;44.12;99317.25;;;;-55
2021/01/25 14:10:45;;;;;;;1.89;1.63;;;;;;;19.03;44.06;99318.48;;;;-54
2021/01/25 14:13:44;;;;;;;2.07;1.86;;;;;;;19.03;44.11;99322.27;;;;-54
2021/01/25 14:16:44;;;;;;;1.80;1.70;;;;;;;19.04;44.03;99325.11;;;;-55
2021/01/25 14:19:44;;;;;;;1.76;1.66;;;;;;;19.03;44.09;99328.13;;;;-55
2021/01/25 14:22:44;;;;;;;1.70;1.60;;;;;;;19.05;44.07;99330.70;;;;-54
2021/01/25 14:25:44;;;;;;;1.91;1.71;;;;;;;19.04;44.10;99332.89;;;;-54
2021/01/25 14:28:44;;;;;;;1.95;1.77;;;;;;;19.04;44.10;99338.52;;;;-54
2021/01/25 14:31:44;;;;;;;1.90;1.65;;;;;;;19.05;44.04;99342.78;;;;-54
2021/01/25 14:34:45;;;;;;;1.73;1.62;;;;;;;19.05;44.05;99350.76;;;;-54
2021/01/25 14:37:44;;;;;;;1.78;1.65;;;;;;;19.06;44.08;99354.48;;;;-58
2021/01/25 14:40:44;;;;;;;3.25;1.78;;;;;;;19.10;44.15;99357.22;;;;-56
2021/01/25 14:43:44;;;;;;;2.08;1.67;;;;;;;19.12;44.27;99359.94;;;;-56
2021/01/25 14:46:44;;;;;;;1.93;1.68;;;;;;;19.14;44.37;99360.65;;;;-58
2021/01/25 14:49:44;;;;;;;1.95;1.61;;;;;;;19.18;44.69;99367.53;;;;-58
2021/01/25 14:52:44;;;;;;;1.61;1.50;;;;;;;19.23;44.75;99374.28;;;;-51
2021/01/25 14:55:44;;;;;;;1.74;1.64;;;;;;;19.24;44.75;99371.62;;;;-57
2021/01/25 14:58:44;;;;;;;1.64;1.54;;;;;;;19.26;44.60;99378.32;;;;-53
2021/01/25 15:01:44;;;;;;;1.72;1.60;;;;;;;19.28;44.77;99376.92;;;;-55
2021/01/25 15:04:44;;;;;;;1.95;1.62;;;;;;;19.32;44.91;99385.56;;;;-52
2021/01/25 15:07:44;;;;;;;1.89;1.63;;;;;;;19.28;44.02;99387.07;;;;-55
2021/01/25 15:10:44;;;;;;;5.99;1.91;;;;;;;19.32;44.66;99395.15;;;;-54
2021/01/25 15:13:44;;;;;;;2.27;1.81;;;;;;;19.33;44.65;99400.52;;;;-58
2021/01/25 15:16:44;;;;;;;1.70;1.60;;;;;;;19.35;44.78;99408.77;;;;-58
2021/01/25 15:19:44;;;;;;;8.81;1.76;;;;;;;19.35;44.36;99409.00;;;;-58
2021/01/25 15:22:44;;;;;;;2.49;1.54;;;;;;;19.35;44.27;99413.16;;;;-60
2021/01/25 15:25:44;;;;;;;2.47;1.80;;;;;;;19.35;44.20;99415.36;;;;-58
2021/01/25 15:28:44;;;;;;;2.69;1.55;;;;;;;19.35;44.21;99425.59;;;;-61
2021/01/25 15:31:44;;;;;;;2.20;1.65;;;;;;;19.38;44.32;99429.20;;;;-57
2021/01/25 15:34:44;;;;;;;2.71;1.69;;;;;;;19.39;44.34;99434.40;;;;-57
2021/01/25 15:37:44;;;;;;;5.30;1.70;;;;;;;19.39;44.14;99439.02;;;;-58
2021/01/25 15:40:44;;;;;;;3.08;1.50;;;;;;;19.39;44.17;99447.88;;;;-58
2021/01/25 15:43:44;;;;;;;2.33;1.63;;;;;;;19.39;44.13;99458.36;;;;-58
2021/01/25 15:46:44;;;;;;;2.04;1.52;;;;;;;19.40;44.10;99459.16;;;;-58
2021/01/25 15:49:44;;;;;;;1.85;1.57;;;;;;;19.39;44.11;99463.65;;;;-58
2021/01/25 15:52:44;;;;;;;2.18;1.59;;;;;;;19.39;44.13;99468.69;;;;-58
2021/01/25 15:55:44;;;;;;;2.63;1.51;;;;;;;19.39;44.10;99476.73;;;;-57
2021/01/25 15:58:44;;;;;;;1.73;1.49;;;;;;;19.39;44.10;99480.38;;;;-58
2021/01/25 16:01:44;;;;;;;1.57;1.47;;;;;;;19.39;44.06;99489.81;;;;-58
2021/01/25 16:04:44;;;;;;;2.17;1.50;;;;;;;19.40;44.08;99491.66;;;;-58
2021/01/25 16:07:44;;;;;;;1.62;1.50;;;;;;;19.39;44.07;99490.06;;;;-58
2021/01/25 16:10:44;;;;;;;1.88;1.46;;;;;;;19.40;44.08;99493.77;;;;-58
2021/01/25 16:13:44;;;;;;;1.92;1.52;;;;;;;19.40;44.04;99500.22;;;;-58
2021/01/25 16:16:44;;;;;;;1.52;1.42;;;;;;;19.41;44.08;99504.09;;;;-58
2021/01/25 16:19:44;;;;;;;2.25;1.50;;;;;;;19.43;44.03;99512.70;;;;-58
2021/01/25 16:22:44;;;;;;;1.77;1.55;;;;;;;19.44;44.20;99519.01;;;;-58
2021/01/25 16:25:44;;;;;;;1.96;1.59;;;;;;;19.46;44.27;99525.56;;;;-53
2021/01/25 16:28:44;;;;;;;9.97;1.72;;;;;;;19.49;44.27;99529.45;;;;-58
2021/01/25 16:31:44;;;;;;;1.94;1.59;;;;;;;19.52;44.37;99531.47;;;;-55
2021/01/25 16:34:44;;;;;;;1.62;1.51;;;;;;;19.52;44.38;99534.45;;;;-61
2021/01/25 16:37:44;;;;;;;1.93;1.59;;;;;;;19.54;44.46;99537.63;;;;-53
2021/01/25 16:40:45;;;;;;;2.02;1.50;;;;;;;19.56;44.57;99544.18;;;;-51
2021/01/25 16:43:44;;;;;;;2.05;1.43;;;;;;;19.60;44.65;99544.56;;;;-60
2021/01/25 16:46:44;;;;;;;2.91;1.63;;;;;;;19.61;44.54;99547.73;;;;-57
2021/01/25 16:49:44;;;;;;;1.97;1.59;;;;;;;19.63;44.55;99553.05;;;;-56
2021/01/25 16:52:44;;;;;;;2.69;1.60;;;;;;;19.64;44.53;99561.25;;;;-52
2021/01/25 16:55:44;;;;;;;1.59;1.47;;;;;;;19.66;44.34;99565.46;;;;-60
2021/01/25 16:58:45;;;;;;;3.36;1.71;;;;;;;19.64;43.97;99569.80;;;;-59